Heyworth, IL (61745)

7:34 AM CST on November 23, 2014 (GMT -0600)
Out on the Farm | Change Station
CLOSE
Current Station
Personal Weather Station
Location: Heyworth, IL
Elevation: 788 ft
Nearby Weather Stations

Elev 788 ft 40.31 °N, 88.95 °W | Updated 1 second ago

Overcast
Overcast
45.8 °F
Feels Like 40 °F
N
11.0
Wind Variable Wind from SE
Gusts 12.0 mph

Today
High -- | Low -- °F
--% Chance of Precip.
Yesterday
High -- | Low -- °F
Precip. -- in
6:50 AM 4:33 PM
New Moon, 1% visible
Pressure 29.78 in
Visibility 10.0 miles
Clouds Scattered Clouds 9500 ft
Windchill 40 °F
Dew Point 43 °F
Humidity 90%
Rainfall 0.00 in
Snow Depth Not available.
UV 0 out of 12
Pollen .10 out of 12
Air Quality Not available.
Flu Activity Not available.
METAR KBMI 231256Z 16013KT 10SM SCT095 08/06 A2976 RMK AO2 T00830061 SLP082

More Conditions Fewer Conditions

Pressure 29.78 in
Visibility 10.0 miles
Clouds Scattered Clouds 9500 ft
Windchill 40 °F
Dew Point 43 °F
Humidity 90%
Rainfall 0.00 in
Snow Depth Not available.
UV 0 out of 12
Pollen .10 out of 12
Air Quality Not available.
Flu Activity Not available.
METAR KBMI 231256Z 16013KT 10SM SCT095 08/06 A2976 RMK AO2 T00830061 SLP082

More Conditions Fewer Conditions

10-Day Weather Forecast

Almanac

Astronomy

Nov. 23, 2014 Rise Set
Actual Time
Civil Twilight
Nautical Twilight
Astronomical Twilight
Moon
Length of Visible Light
Length of Day
Tomorrow will be .
, % of the Moon is Illuminated

Today's Extremes

State Highs State Lows

Community

WunderPhotos

Upload Photos

1,773,057 photos uploaded!

WunderBlogs® & News

Nearby

Air Quality

  Air Quality AQ Index Pollutant
Not available.

Snow Depth

Station Depth Elevation

Earthquake Activity

City Distance Mag. Time & Date
Minimum magnitude displayed is 2.5.

Coastal Water Temperatures

Place Temperature

Nearby Weather Stations